EPHEPHRATA MUNI
METARs for airports near EPH, sorted by distance:
N 0 nm 1276' KEPH 080553Z 29004KT 10SM CLR 24/03 A2995
SE 10 nm 1188' KMWH 080552Z 00000KT 10SM CLR 23/07 A2995
W 28 nm 1248' KEAT 080555Z 08003KT 10SM CLR 24/06 A2995
W 44 nm 1763' KELN 080553Z 31005KT 10SM CLR 22/06 A3000
S 60 nm 394' KRLD 080615Z 00000KT 10SM CLR 21/10 A2991
SW 61 nm 1098' KYKM 080553Z 26004KT 10SM CLR 18/08 A2997
S 64 nm 410' KPSC 080553Z 34005KT 10SM CLR 18/14 A2991
N 69 nm 1304' KOMK 080553Z 17007KT 10SM CLR 26/03 A2995
E 77 nm 2462' KSKA 080558Z 00000KT 10SM CLR 22/03 A3001
E 82 nm 2385' KGEG 080553Z 16006KT 10SM CLR 24/03 A3003
SE 88 nm 1194' KALW 080553Z 13006KT 10SM CLR 23/05 A2995
S 89 nm 644' KHRI 080553Z 18006KT 10SM CLR 21/03 A2992
E 91 nm 1956' KSFF 080553Z 04003KT 10SM CLR 23/07 A3002
NE 93 nm 2210' KDEW 080553Z 00000KT 10SM CLR 15/07 A3002
TAFs for airports near EPH, sorted by distance:
SE 10 nm 1188' KMWH TAF KMWH 080520Z 0806/0906 27004KT P6SM SKC
  FM082100 20007KT P6SM SKC
  FM090300 18006KT P6SM SKC
W 28 nm 1248' KEAT TAF KEAT 080520Z 0806/0906 09008KT P6SM SKC
  FM081000 31006KT P6SM SKC
  FM082000 15004KT P6SM SKC
SW 61 nm 1098' KYKM TAF KYKM 080520Z 0806/0906 26007KT P6SM FEW250
  FM082100 14005KT P6SM FEW250
  FM090300 34006KT P6SM FEW250
S 64 nm 410' KPSC TAF KPSC 080520Z 0806/0906 VRB04KT P6SM FEW250
E 77 nm 2462' KSKA TAF KSKA 080300Z 0803/0909 20008KT 9999 SKC QNH3005INS
  BECMG 0901/0902 23009KT 9999 BKN130 QNH2993INS TX29/0803Z TN15/0812Z
E 82 nm 2385' KGEG TAF KGEG 080520Z 0806/0906 19005KT P6SM SKC
  FM080800 11004KT P6SM SKC
  FM082000 20008KT P6SM SKC
  FM090000 24007KT P6SM FEW250
SE 88 nm 1194' KALW TAF KALW 080520Z 0806/0906 15009KT P6SM FEW250
  FM081800 26005KT P6SM FEW250
  FM090000 33005KT P6SM FEW250
E 91 nm 1956' KSFF TAF KSFF 080520Z 0806/0906 VRB03KT P6SM SKC

Shortcut to this page: http://wxbay.com.

Data may contain errors.